首页
METAR-TAF:

METAR-TAF

机场 :

布雷斯特-布列塔尼機場

布雷斯特, 法国

纬度: 48-27N, 经度: 004-25W, 海拔: 99米

当前天气观测

该预报发布于20分钟前的20:00 UTC
风速12节,风向
温度 9°C
湿度 93%
气压 1013 hPa
能见度10公里或以上
多云层高于1000英尺
阴天层高于1900英尺

METAR: LFRB 292000Z AUTO 17012KT 9999 BKN010 OVC019 09/08 Q1013 NOSIG

时间: 21:20 (20:20 UTC)

预报

该预报发布于11分钟前的20:09 UTC
预报有效从29日的 20点(UTC)到 30日的 24点(UTC)
风速10节,风向
能见度10公里或以上
多云层高于1000英尺
阴天层高于2000英尺
短暂存在
从 29日的 20点(UTC)到 30日的 15点(UTC)
能見度: 3000
阴天层高于300英尺
小雨
成为
从 29日的 23点(UTC)到 30日的 02点(UTC)
风速15节,风向南转西南,有时为25节阵风
成为
从 30日的 12点(UTC)到 30日的 15点(UTC)
风速10节,风向西南

TAF: LFRB 292009Z 2920/3024 18010KT 9999 BKN010 OVC020 TEMPO 2920/3015 3000 -RA OVC003 BECMG 2923/3002 20015G25KT BECMG 3012/3015 23010KT

超过4000个机场的气象观测和天气预报(METAR&TAF报告)。

可查询的气象台以黄色和红色小点在地图上表示。

将鼠标移到小点上方,可查看气象台名称。

然后点击查看天气观测和预报。

如需切换地图:点击带黑十字的绿色按钮放大地图;点击带横线的绿色按钮缩小地图;或者点击绿色箭头查看邻近地区的地图。


METAR-TAF: